Time;durP1;ratioP1;P1;durP2;ratioP2;P2;SDS_P1;SDS_P2;PMS_P1;PMS_P2;Temp;Humidity;BMP_temperature;BMP_pressure;BME280_temperature;BME280_humidity;BME280_pressure;Samples;Min_cycle;Max_cycle;Signal;HPM_P1;HPM_P2
2023/09/21 00:01:23;;;;;;;5.18;2.90;;;22.50;96.70;;;;;;5088642;28;20507;-81
2023/09/21 00:03:53;;;;;;;5.47;2.42;;;22.50;96.70;;;;;;5071262;28;20040;-81
2023/09/21 00:06:23;;;;;;;5.95;2.53;;;22.50;96.70;;;;;;5087477;28;20116;-80
2023/09/21 00:08:52;;;;;;;8.45;3.25;;;22.40;96.70;;;;;;5088019;28;20382;-82
2023/09/21 00:11:20;;;;;;;7.32;2.88;;;22.40;96.70;;;;;;5070140;28;20566;-81
2023/09/21 00:13:49;;;;;;;7.35;2.70;;;22.30;96.70;;;;;;5071161;28;20051;-81
2023/09/21 00:16:18;;;;;;;8.68;3.10;;;22.30;96.70;;;;;;5106493;28;20059;-80
2023/09/21 00:18:47;;;;;;;10.63;2.92;;;22.20;96.70;;;;;;5087920;28;20095;-81
2023/09/21 00:21:16;;;;;;;7.90;2.67;;;22.10;96.70;;;;;;5088088;28;20051;-79
2023/09/21 00:23:47;;;;;;;6.50;2.88;;;22.00;96.70;;;;;;5105614;28;20650;-80
2023/09/21 00:26:16;;;;;;;6.55;2.88;;;22.00;96.70;;;;;;5070698;28;20039;-80
2023/09/21 00:28:51;;;;;;;6.80;3.15;;;22.10;96.70;;;;;;5087704;28;20050;-81
2023/09/21 00:31:19;;;;;;;6.40;3.13;;;22.10;96.70;;;;;;5087110;28;20501;-81
2023/09/21 00:33:47;;;;;;;3.50;2.70;;;22.20;96.70;;;;;;5070112;28;20147;-80
2023/09/21 00:36:17;;;;;;;6.50;3.30;;;22.30;96.70;;;;;;5086817;28;20077;-81
2023/09/21 00:38:48;;;;;;;8.13;3.65;;;22.10;96.70;;;;;;5069553;28;20063;-81
2023/09/21 00:41:18;;;;;;;6.13;3.30;;;22.00;96.70;;;;;;5070308;28;20059;-80
2023/09/21 00:43:47;;;;;;;6.00;2.97;;;22.00;96.70;;;;;;5070994;28;20702;-81
2023/09/21 00:46:17;;;;;;;6.18;3.33;;;22.00;96.70;;;;;;5070250;28;20052;-80
2023/09/21 00:48:45;;;;;;;7.30;3.75;;;22.00;96.70;;;;;;5084451;28;20048;-80
2023/09/21 00:51:16;;;;;;;6.30;3.15;;;22.10;96.70;;;;;;5088253;28;20039;-80
2023/09/21 00:53:47;;;;;;;6.05;3.30;;;22.10;96.70;;;;;;5087709;28;20130;-81
2023/09/21 00:56:18;;;;;;;7.60;3.70;;;22.00;96.70;;;;;;5105859;28;20446;-81
2023/09/21 00:58:53;;;;;;;6.07;2.95;;;22.00;96.70;;;;;;5070352;28;20047;-80
2023/09/21 01:01:27;;;;;;;6.30;3.25;;;22.10;96.70;;;;;;5078884;28;20056;-81
2023/09/21 01:03:59;;;;;;;7.45;3.40;;;22.10;96.70;;;;;;5105085;28;20040;-80
2023/09/21 01:06:27;;;;;;;8.95;4.03;;;22.00;96.70;;;;;;5073801;28;20047;-80
2023/09/21 01:08:58;;;;;;;8.30;3.70;;;22.00;96.70;;;;;;5073991;28;20074;-80
2023/09/21 01:11:27;;;;;;;7.05;3.63;;;22.00;96.70;;;;;;5073621;28;20047;-81
2023/09/21 01:14:01;;;;;;;8.52;4.20;;;22.00;96.70;;;;;;5073682;28;20043;-80
2023/09/21 01:16:30;;;;;;;7.32;4.20;;;22.00;96.70;;;;;;5084780;28;20051;-80
2023/09/21 01:18:59;;;;;;;7.70;4.32;;;22.00;96.70;;;;;;5073612;28;20051;-80
2023/09/21 01:21:37;;;;;;;10.35;4.10;;;22.00;96.70;;;;;;5109362;28;20078;-80
2023/09/21 01:24:13;;;;;;;5.57;3.40;;;21.90;96.70;;;;;;5065963;28;20086;-80
2023/09/21 01:26:41;;;;;;;12.48;4.88;;;22.00;96.70;;;;;;5074323;28;20048;-80
2023/09/21 01:29:13;;;;;;;6.13;3.60;;;22.00;96.70;;;;;;5073944;28;20104;-81
2023/09/21 01:31:43;;;;;;;6.82;3.67;;;21.90;96.70;;;;;;5090654;28;20063;-81
2023/09/21 01:34:11;;;;;;;6.35;4.13;;;21.90;96.70;;;;;;5123810;27;20451;-80
2023/09/21 01:36:39;;;;;;;7.90;4.25;;;21.90;96.70;;;;;;5073009;28;20052;-80
2023/09/21 01:39:09;;;;;;;7.15;3.55;;;21.90;96.70;;;;;;5108403;28;20573;-80
2023/09/21 01:41:37;;;;;;;8.70;3.63;;;21.90;96.70;;;;;;5074837;28;20051;-83
2023/09/21 01:44:09;;;;;;;6.13;3.38;;;21.90;96.70;;;;;;5091120;28;20059;-83
2023/09/21 01:46:37;;;;;;;7.63;3.15;;;21.80;96.70;;;;;;5075816;28;20096;-83
2023/09/21 01:49:06;;;;;;;6.45;2.40;;;21.80;96.70;;;;;;5091892;28;20501;-82
2023/09/21 01:51:37;;;;;;;6.47;2.88;;;21.70;96.70;;;;;;5075847;28;20079;-84
2023/09/21 01:54:07;;;;;;;6.35;2.00;;;21.70;96.70;;;;;;5110580;28;20120;-83
2023/09/21 01:56:37;;;;;;;5.53;2.53;;;21.70;96.70;;;;;;5075998;28;20066;-83
2023/09/21 01:59:05;;;;;;;4.65;2.33;;;21.70;96.70;;;;;;5075654;28;20048;-83
2023/09/21 02:01:34;;;;;;;3.95;2.33;;;21.70;96.70;;;;;;5108557;28;20082;-83
2023/09/21 02:04:02;;;;;;;6.93;2.28;;;21.70;96.70;;;;;;5092494;28;20050;-83
2023/09/21 02:06:31;;;;;;;5.07;2.25;;;21.60;96.70;;;;;;5110716;28;20035;-83
2023/09/21 02:09:03;;;;;;;4.70;1.98;;;21.60;96.70;;;;;;5075273;28;20066;-83
2023/09/21 02:11:35;;;;;;;5.03;2.58;;;21.60;96.70;;;;;;5098742;28;20048;-83
2023/09/21 02:14:05;;;;;;;7.07;2.13;;;21.60;96.70;;;;;;5091858;28;20051;-84
2023/09/21 02:16:34;;;;;;;5.15;2.53;;;21.50;96.70;;;;;;5076202;28;20109;-84
2023/09/21 02:19:02;;;;;;;5.78;2.47;;;21.50;96.70;;;;;;5079260;28;20056;-83
2023/09/21 02:21:34;;;;;;;5.30;2.97;;;21.50;96.70;;;;;;5091770;28;20047;-84
2023/09/21 02:24:04;;;;;;;4.55;2.53;;;21.50;96.70;;;;;;5110045;28;20498;-83
2023/09/21 02:26:37;;;;;;;8.00;2.70;;;21.50;96.70;;;;;;5092493;28;20378;-83
2023/09/21 02:29:09;;;;;;;5.25;2.40;;;21.50;96.70;;;;;;5091848;28;20047;-84
2023/09/21 02:31:38;;;;;;;5.07;2.40;;;21.40;96.70;;;;;;5092351;28;20047;-83
2023/09/21 02:34:07;;;;;;;7.70;2.67;;;21.30;96.70;;;;;;5109598;28;20043;-83
2023/09/21 02:36:35;;;;;;;6.28;2.55;;;21.30;96.70;;;;;;5109589;28;20047;-84
2023/09/21 02:39:10;;;;;;;6.07;2.28;;;21.30;96.70;;;;;;5091559;28;20047;-84
2023/09/21 02:41:39;;;;;;;6.50;2.78;;;21.30;96.70;;;;;;5110016;28;20069;-83
2023/09/21 02:44:09;;;;;;;5.53;2.55;;;21.30;96.70;;;;;;5075126;28;20130;-84
2023/09/21 02:46:37;;;;;;;4.60;2.92;;;21.20;96.70;;;;;;5097913;28;20079;-83
2023/09/21 02:49:06;;;;;;;6.15;2.50;;;21.30;96.70;;;;;;5091101;28;20047;-83
2023/09/21 02:51:35;;;;;;;4.53;2.20;;;21.30;96.70;;;;;;5100223;28;20051;-83
2023/09/21 02:54:04;;;;;;;8.95;2.75;;;21.30;96.70;;;;;;5068834;28;20497;-83
2023/09/21 02:56:32;;;;;;;4.78;2.50;;;21.30;96.70;;;;;;5074814;28;20047;-84
2023/09/21 02:59:00;;;;;;;4.15;2.42;;;21.20;96.70;;;;;;5108448;28;20046;-80
2023/09/21 03:01:31;;;;;;;3.97;2.20;;;21.20;96.70;;;;;;5095527;28;20134;-80
2023/09/21 03:03:59;;;;;;;5.50;2.63;;;21.20;96.70;;;;;;5088422;28;20043;-81
2023/09/21 03:06:32;;;;;;;6.95;2.60;;;21.20;96.70;;;;;;5097168;28;20104;-80
2023/09/21 03:09:01;;;;;;;10.38;2.70;;;21.20;96.70;;;;;;5082132;28;20052;-80
2023/09/21 03:11:30;;;;;;;4.82;2.42;;;21.20;96.70;;;;;;5072510;28;20100;-79
2023/09/21 03:14:02;;;;;;;6.97;2.45;;;21.20;96.70;;;;;;5106203;28;20082;-80
2023/09/21 03:16:33;;;;;;;8.23;2.28;;;21.10;96.70;;;;;;5071545;28;20057;-80
2023/09/21 03:19:02;;;;;;;4.80;2.42;;;21.00;96.70;;;;;;5083145;28;20055;-80
2023/09/21 03:21:34;;;;;;;4.63;2.22;;;21.10;96.70;;;;;;5096827;28;20040;-81
2023/09/21 03:24:02;;;;;;;5.00;3.10;;;21.20;96.70;;;;;;5087637;28;20059;-80
2023/09/21 03:26:31;;;;;;;6.20;2.97;;;21.20;96.70;;;;;;5087617;28;20520;-81
2023/09/21 03:28:59;;;;;;;4.82;2.30;;;21.10;96.70;;;;;;5088094;28;20055;-80
2023/09/21 03:31:28;;;;;;;11.45;2.83;;;21.10;96.70;;;;;;5087990;28;20122;-80
2023/09/21 03:34:02;;;;;;;6.68;2.30;;;21.10;96.70;;;;;;5087757;28;20075;-80
2023/09/21 03:36:35;;;;;;;8.23;3.03;;;21.10;96.70;;;;;;5069951;28;20074;-79
2023/09/21 03:39:09;;;;;;;4.53;2.55;;;21.10;96.70;;;;;;5105847;28;20455;-81
2023/09/21 03:41:37;;;;;;;5.38;2.45;;;21.10;96.70;;;;;;5087795;28;20070;-81
2023/09/21 03:44:06;;;;;;;4.05;2.65;;;21.10;96.70;;;;;;5071029;28;20047;-81
2023/09/21 03:46:35;;;;;;;8.75;3.33;;;21.00;96.70;;;;;;5087789;28;20143;-81
2023/09/21 03:49:05;;;;;;;6.95;2.92;;;21.00;96.70;;;;;;5087997;28;20036;-80
2023/09/21 03:51:33;;;;;;;6.55;2.70;;;21.00;96.70;;;;;;5087990;28;20051;-81
2023/09/21 03:54:02;;;;;;;6.90;2.22;;;20.90;96.70;;;;;;5088006;28;20402;-80
2023/09/21 03:56:30;;;;;;;6.22;2.63;;;20.90;96.70;;;;;;5088263;28;20051;-79
2023/09/21 03:58:58;;;;;;;4.30;2.30;;;20.80;96.70;;;;;;5105950;28;20035;-80
2023/09/21 04:01:29;;;;;;;7.05;2.90;;;20.80;96.70;;;;;;5106129;28;20040;-81
2023/09/21 04:04:04;;;;;;;7.35;3.17;;;20.90;96.70;;;;;;5087033;28;20047;-81
2023/09/21 04:06:34;;;;;;;8.65;3.47;;;20.80;96.70;;;;;;5087615;28;20052;-81
2023/09/21 04:09:06;;;;;;;6.80;4.10;;;20.80;96.70;;;;;;5089740;28;20538;-82
2023/09/21 04:11:34;;;;;;;9.05;4.55;;;20.80;96.70;;;;;;5086941;28;20059;-81
2023/09/21 04:14:04;;;;;;;11.07;5.35;;;20.80;96.70;;;;;;5106237;28;20139;-81
2023/09/21 04:16:45;;;;;;;8.93;5.60;;;20.80;96.70;;;;;;5098411;28;20050;-80
2023/09/21 04:19:14;;;;;;;9.82;5.45;;;20.70;96.70;;;;;;5096906;28;20461;-81
2023/09/21 04:21:46;;;;;;;8.40;4.60;;;20.70;96.70;;;;;;5071347;28;20047;-80
2023/09/21 04:24:16;;;;;;;7.40;4.55;;;20.80;96.70;;;;;;5096481;28;20047;-81
2023/09/21 04:26:45;;;;;;;5.95;3.80;;;20.90;96.70;;;;;;5088063;28;20047;-81
2023/09/21 04:29:15;;;;;;;5.63;3.55;;;20.90;96.70;;;;;;5087728;28;20568;-81
2023/09/21 04:31:44;;;;;;;6.55;3.80;;;20.80;96.70;;;;;;5105766;28;20043;-81
2023/09/21 04:34:13;;;;;;;7.35;3.72;;;20.80;96.70;;;;;;5089244;28;20059;-81
2023/09/21 04:36:47;;;;;;;9.95;4.15;;;20.70;96.70;;;;;;5071499;28;20055;-81
2023/09/21 04:39:15;;;;;;;7.45;3.72;;;20.70;96.70;;;;;;5090481;28;20615;-81
2023/09/21 04:41:44;;;;;;;6.45;3.72;;;20.70;96.70;;;;;;5075688;28;20039;-80
2023/09/21 04:44:15;;;;;;;8.48;3.58;;;20.60;96.70;;;;;;5075630;28;20077;-81
2023/09/21 04:46:43;;;;;;;7.80;3.17;;;20.60;96.70;;;;;;5091899;28;20526;-81
2023/09/21 04:49:11;;;;;;;3.00;2.42;;;20.60;96.70;;;;;;5075221;28;20088;-81
2023/09/21 04:51:40;;;;;;;8.10;2.70;;;20.70;96.70;;;;;;5091975;28;20055;-81
2023/09/21 04:54:10;;;;;;;5.22;2.90;;;20.70;96.70;;;;;;5109807;28;20044;-81
2023/09/21 04:56:39;;;;;;;5.25;2.90;;;20.70;96.70;;;;;;5110654;28;20047;-81
2023/09/21 04:59:09;;;;;;;6.10;2.88;;;20.70;96.70;;;;;;5092305;28;20126;-81
2023/09/21 05:01:37;;;;;;;5.20;3.25;;;20.60;96.70;;;;;;5092129;28;20058;-81
2023/09/21 05:04:05;;;;;;;7.50;2.95;;;20.60;96.70;;;;;;5082245;28;20513;-80
2023/09/21 05:06:33;;;;;;;5.88;3.22;;;20.60;96.70;;;;;;5091677;28;20058;-81
2023/09/21 05:09:03;;;;;;;6.05;3.22;;;20.60;96.70;;;;;;5091729;28;20048;-80
2023/09/21 05:11:38;;;;;;;6.07;3.72;;;20.60;96.70;;;;;;5079748;28;20077;-82
2023/09/21 05:14:08;;;;;;;5.22;3.80;;;20.60;96.70;;;;;;5100243;28;20502;-81
2023/09/21 05:16:37;;;;;;;7.22;4.05;;;20.60;96.70;;;;;;5109747;28;20453;-81
2023/09/21 05:19:05;;;;;;;9.93;4.65;;;20.60;96.70;;;;;;5091186;28;20039;-81
2023/09/21 05:21:33;;;;;;;7.57;4.13;;;20.60;96.70;;;;;;5109446;28;20096;-80
2023/09/21 05:24:01;;;;;;;5.78;4.00;;;20.60;96.70;;;;;;5091334;28;20108;-81
2023/09/21 05:26:29;;;;;;;7.00;3.75;;;20.70;96.70;;;;;;5091844;28;20046;-81
2023/09/21 05:28:58;;;;;;;9.30;4.50;;;20.70;96.70;;;;;;5090935;28;20139;-81
2023/09/21 05:31:26;;;;;;;7.80;3.70;;;20.70;96.70;;;;;;5109645;28;20039;-80
2023/09/21 05:33:55;;;;;;;6.30;3.45;;;20.70;96.70;;;;;;5092932;27;20537;-81
2023/09/21 05:36:23;;;;;;;7.97;3.40;;;20.60;96.70;;;;;;5090443;28;20044;-79
2023/09/21 05:38:51;;;;;;;4.70;3.05;;;20.60;96.70;;;;;;5073314;28;20468;-79
2023/09/21 05:41:19;;;;;;;5.82;3.10;;;20.60;96.70;;;;;;5089681;27;20043;-79
2023/09/21 05:43:47;;;;;;;5.88;2.92;;;20.50;96.70;;;;;;5091543;28;20052;-81
2023/09/21 05:46:17;;;;;;;6.10;2.85;;;20.50;96.70;;;;;;5092301;27;20044;-81
2023/09/21 05:48:46;;;;;;;5.18;3.30;;;20.50;96.70;;;;;;5090539;28;20111;-81
2023/09/21 05:51:15;;;;;;;6.35;3.13;;;20.50;96.70;;;;;;5093693;28;20043;-83
2023/09/21 05:53:43;;;;;;;6.00;3.13;;;20.50;96.70;;;;;;5093174;27;20108;-83
2023/09/21 05:56:11;;;;;;;7.43;3.50;;;20.60;96.70;;;;;;5075348;28;20040;-83
2023/09/21 05:58:39;;;;;;;6.57;3.50;;;20.60;96.70;;;;;;5076032;28;20051;-82
2023/09/21 06:01:07;;;;;;;6.50;3.15;;;20.70;96.70;;;;;;5075641;28;20508;-83
2023/09/21 06:03:37;;;;;;;7.10;3.58;;;20.70;96.70;;;;;;5075521;28;20044;-82
2023/09/21 06:06:09;;;;;;;4.68;3.45;;;20.70;96.70;;;;;;5081591;28;20100;-83
2023/09/21 06:08:37;;;;;;;6.93;3.53;;;20.70;96.70;;;;;;5100255;28;20412;-82
2023/09/21 06:11:05;;;;;;;13.00;4.03;;;20.80;96.70;;;;;;5075059;28;20040;-83
2023/09/21 06:13:33;;;;;;;9.55;3.60;;;20.80;96.70;;;;;;5110984;27;20120;-83
2023/09/21 06:16:02;;;;;;;9.25;3.80;;;20.90;96.70;;;;;;5088551;28;20624;-81
2023/09/21 06:18:31;;;;;;;6.55;2.72;;;20.90;96.70;;;;;;5091081;27;20069;-81
2023/09/21 06:21:02;;;;;;;6.13;3.40;;;20.80;96.70;;;;;;5073500;28;20078;-82
2023/09/21 06:23:30;;;;;;;5.43;3.05;;;20.80;96.70;;;;;;5091464;28;20128;-83
2023/09/21 06:25:57;;;;;;;7.20;3.05;;;20.80;96.70;;;;;;5081967;28;20122;-83
2023/09/21 06:28:25;;;;;;;5.50;2.60;;;20.90;96.70;;;;;;5110162;28;20093;-83
2023/09/21 06:30:53;;;;;;;8.30;3.25;;;21.00;96.70;;;;;;5079763;28;20047;-83
2023/09/21 06:33:24;;;;;;;5.70;3.08;;;21.10;96.70;;;;;;5105159;28;20048;-83
2023/09/21 06:35:52;;;;;;;5.63;2.38;;;21.20;96.70;;;;;;5083724;28;20055;-83
2023/09/21 06:38:22;;;;;;;10.65;3.22;;;21.20;96.70;;;;;;5091830;28;20051;-83
2023/09/21 06:40:50;;;;;;;5.30;2.33;;;21.20;96.70;;;;;;5091703;28;20047;-83
2023/09/21 06:43:18;;;;;;;7.85;3.00;;;21.30;96.70;;;;;;5091611;28;20134;-83
2023/09/21 06:45:46;;;;;;;8.80;3.03;;;21.30;96.70;;;;;;5109431;28;20053;-83
2023/09/21 06:48:14;;;;;;;8.93;3.60;;;21.40;96.70;;;;;;5099942;28;20500;-83
2023/09/21 06:50:42;;;;;;;7.13;3.38;;;21.50;96.70;;;;;;5091628;28;20536;-83
2023/09/21 06:53:10;;;;;;;8.15;3.15;;;21.50;96.70;;;;;;5109761;28;20044;-84
2023/09/21 06:55:39;;;;;;;9.57;3.95;;;21.60;96.70;;;;;;5109885;28;20589;-83
2023/09/21 06:58:08;;;;;;;8.35;4.43;;;21.70;96.70;;;;;;5091793;28;20040;-83
2023/09/21 07:00:37;;;;;;;9.73;4.47;;;21.90;96.70;;;;;;5091100;28;20074;-83
2023/09/21 07:03:05;;;;;;;10.27;4.53;;;22.00;96.70;;;;;;5090181;28;20101;-83
2023/09/21 07:05:33;;;;;;;10.98;4.45;;;22.10;96.70;;;;;;5090857;28;20071;-83
2023/09/21 07:08:01;;;;;;;10.30;5.10;;;22.00;96.70;;;;;;5109342;28;20043;-83
2023/09/21 07:10:29;;;;;;;9.98;4.70;;;22.00;96.70;;;;;;5091335;28;20079;-84
2023/09/21 07:12:58;;;;;;;9.02;4.25;;;22.10;96.70;;;;;;5109356;28;20541;-84
2023/09/21 07:15:28;;;;;;;10.68;5.47;;;22.30;96.70;;;;;;5081872;28;20052;-83
2023/09/21 07:17:56;;;;;;;13.18;5.80;;;22.40;96.70;;;;;;5109057;28;20040;-83
2023/09/21 07:20:26;;;;;;;12.50;5.00;;;22.40;96.70;;;;;;5070620;28;20044;-83
2023/09/21 07:22:54;;;;;;;12.77;5.10;;;22.40;96.70;;;;;;5087284;28;20070;-83
2023/09/21 07:25:22;;;;;;;14.75;5.63;;;22.30;96.70;;;;;;5104294;28;20055;-84
2023/09/21 07:27:54;;;;;;;16.13;5.03;;;22.30;96.70;;;;;;5108169;28;20493;-83
2023/09/21 07:30:25;;;;;;;12.98;5.38;;;22.30;96.70;;;;;;5074464;28;20086;-83
2023/09/21 07:32:55;;;;;;;10.48;4.22;;;22.60;96.70;;;;;;5108681;28;20424;-83
2023/09/21 07:35:23;;;;;;;13.60;4.10;;;22.70;96.70;;;;;;5089882;28;20048;-83
2023/09/21 07:37:51;;;;;;;8.63;4.03;;;22.70;96.70;;;;;;5069912;28;20048;-83
2023/09/21 07:40:21;;;;;;;10.35;4.10;;;22.80;96.70;;;;;;5080166;28;20160;-83
2023/09/21 07:42:51;;;;;;;8.98;4.00;;;22.90;96.70;;;;;;5073951;28;20055;-83
2023/09/21 07:45:22;;;;;;;7.93;3.47;;;22.90;96.70;;;;;;5108165;28;20040;-83
2023/09/21 07:47:54;;;;;;;8.75;3.60;;;22.90;96.70;;;;;;5073079;28;20048;-83
2023/09/21 07:50:23;;;;;;;11.35;2.95;;;22.90;96.70;;;;;;5077486;27;20137;-84
2023/09/21 07:52:53;;;;;;;8.30;3.50;;;23.00;96.70;;;;;;5098434;28;20048;-83
2023/09/21 07:55:21;;;;;;;6.50;3.33;;;23.00;96.70;;;;;;5073139;28;20054;-82
2023/09/21 07:57:50;;;;;;;7.95;3.50;;;22.90;96.70;;;;;;5089580;28;20063;-83
2023/09/21 08:00:19;;;;;;;11.55;4.03;;;23.00;96.70;;;;;;5107981;28;20043;-83
2023/09/21 08:02:47;;;;;;;8.18;3.63;;;23.10;96.70;;;;;;5089748;28;20055;-83
2023/09/21 08:05:18;;;;;;;8.77;3.85;;;23.20;96.70;;;;;;5089264;28;20248;-83
2023/09/21 08:07:46;;;;;;;7.70;3.65;;;23.20;96.70;;;;;;5089635;28;21023;-81
2023/09/21 08:10:17;;;;;;;8.80;4.07;;;23.20;96.70;;;;;;5072822;28;20043;-81
2023/09/21 08:12:45;;;;;;;10.48;4.63;;;23.20;96.70;;;;;;5088155;28;20135;-82
2023/09/21 08:15:13;;;;;;;8.45;3.58;;;23.20;96.70;;;;;;5074571;28;20043;-83
2023/09/21 08:17:40;;;;;;;4.47;3.03;;;23.20;96.70;;;;;;5107633;28;20035;-83
2023/09/21 08:20:09;;;;;;;7.68;3.28;;;23.20;96.70;;;;;;5107534;28;20040;-84
2023/09/21 08:22:39;;;;;;;5.75;3.30;;;23.30;96.70;;;;;;5107544;28;20043;-84
2023/09/21 08:25:08;;;;;;;8.05;3.38;;;23.30;96.70;;;;;;5089684;28;20043;-84
2023/09/21 08:27:36;;;;;;;8.52;2.97;;;23.30;96.70;;;;;;5108022;28;20085;-84
2023/09/21 08:30:08;;;;;;;5.07;3.08;;;23.40;96.70;;;;;;5090000;28;20043;-84
2023/09/21 08:32:36;;;;;;;8.88;3.15;;;23.40;96.70;;;;;;5081271;28;20062;-84
2023/09/21 08:35:04;;;;;;;8.70;3.28;;;23.60;96.70;;;;;;5072889;28;20432;-83
2023/09/21 08:37:32;;;;;;;7.80;3.97;;;23.70;96.70;;;;;;5086168;28;20536;-83
2023/09/21 08:40:02;;;;;;;8.18;3.15;;;23.50;96.70;;;;;;5086270;28;20047;-83
2023/09/21 08:42:30;;;;;;;5.78;2.78;;;23.60;96.70;;;;;;5085566;28;20068;-82
2023/09/21 08:44:59;;;;;;;6.90;3.15;;;23.70;96.70;;;;;;5082143;28;20043;-81
2023/09/21 08:47:28;;;;;;;6.03;3.38;;;23.80;96.70;;;;;;5086000;28;20044;-82
2023/09/21 08:50:03;;;;;;;7.75;3.25;;;23.90;96.70;;;;;;5085842;28;20047;-82
2023/09/21 08:52:33;;;;;;;8.00;3.20;;;23.90;96.70;;;;;;5084722;28;20127;-82
2023/09/21 08:55:03;;;;;;;9.30;3.90;;;24.00;96.70;;;;;;5068654;28;20044;-83
2023/09/21 08:57:31;;;;;;;7.32;3.15;;;24.00;96.70;;;;;;5077157;28;20044;-83
2023/09/21 09:00:08;;;;;;;8.60;3.53;;;24.10;96.70;;;;;;5085689;28;20055;-84
2023/09/21 09:02:37;;;;;;;9.15;3.55;;;24.10;96.70;;;;;;5085955;28;20063;-85
2023/09/21 09:05:07;;;;;;;11.70;3.63;;;24.20;96.70;;;;;;5087201;28;20529;-83
2023/09/21 09:07:39;;;;;;;6.47;3.25;;;24.30;96.70;;;;;;5085210;28;20489;-83
2023/09/21 09:10:11;;;;;;;10.82;4.53;;;24.30;96.70;;;;;;5084651;28;20457;-83
2023/09/21 09:12:40;;;;;;;8.38;2.90;;;24.30;96.70;;;;;;5065339;28;20597;-83
2023/09/21 09:15:10;;;;;;;8.63;3.08;;;24.40;96.70;;;;;;5085972;28;20044;-82
2023/09/21 09:17:40;;;;;;;8.90;3.47;;;24.40;96.70;;;;;;5085511;28;20036;-83
2023/09/21 09:20:11;;;;;;;7.82;3.08;;;24.50;96.70;;;;;;5085544;28;20048;-83
2023/09/21 09:22:40;;;;;;;10.52;4.00;;;24.60;96.70;;;;;;5085107;28;20054;-83
2023/09/21 09:25:09;;;;;;;9.50;3.95;;;24.60;96.70;;;;;;5068643;28;20478;-82
2023/09/21 09:27:41;;;;;;;8.40;3.22;;;24.60;96.70;;;;;;5071691;28;20401;-83
2023/09/21 09:30:12;;;;;;;8.00;2.50;;;24.70;96.70;;;;;;5088861;28;20055;-85
2023/09/21 09:32:41;;;;;;;5.78;2.10;;;24.90;96.70;;;;;;5090037;28;20044;-84
2023/09/21 09:35:13;;;;;;;6.00;2.03;;;25.00;96.70;;;;;;5089592;28;20043;-84
2023/09/21 09:37:43;;;;;;;5.45;1.92;;;24.90;96.70;;;;;;5069612;28;20080;-83
2023/09/21 09:40:13;;;;;;;6.88;1.60;;;24.90;96.70;;;;;;5087577;28;20043;-82
2023/09/21 09:42:46;;;;;;;4.97;1.90;;;25.10;96.70;;;;;;5088026;28;20052;-82
2023/09/21 09:45:18;;;;;;;6.60;1.98;;;25.10;96.70;;;;;;5082255;28;20047;-82
2023/09/21 09:47:51;;;;;;;6.32;1.88;;;24.90;96.70;;;;;;5084698;28;20704;-82
2023/09/21 09:50:24;;;;;;;5.10;1.67;;;25.00;96.70;;;;;;5075349;28;20048;-82
2023/09/21 09:53:00;;;;;;;3.75;1.27;;;25.30;96.70;;;;;;5071042;28;20048;-82
2023/09/21 09:55:32;;;;;;;9.65;2.80;;;25.50;96.70;;;;;;5088051;28;20632;-81
2023/09/21 09:58:01;;;;;;;6.03;1.88;;;25.70;96.70;;;;;;5071376;28;20052;-81
2023/09/21 10:00:30;;;;;;;5.00;2.03;;;25.90;96.70;;;;;;5087601;28;20040;-81
2023/09/21 10:02:59;;;;;;;5.15;1.60;;;25.80;96.70;;;;;;5070630;28;20144;-83
2023/09/21 10:05:28;;;;;;;4.40;1.55;;;25.90;96.70;;;;;;5070838;28;20068;-83
2023/09/21 10:08:02;;;;;;;3.58;1.60;;;25.80;96.70;;;;;;5088090;28;20081;-82
2023/09/21 10:10:36;;;;;;;6.47;2.08;;;25.80;96.70;;;;;;5089456;28;20051;-82
2023/09/21 10:13:05;;;;;;;3.63;1.30;;;25.90;96.70;;;;;;5088387;28;20048;-83
2023/09/21 10:15:33;;;;;;;4.32;1.45;;;26.00;96.70;;;;;;5088714;28;20036;-83
2023/09/21 10:18:28;;;;;;;6.45;1.55;;;26.00;96.70;;;;;;5087805;28;20535;-83
2023/09/21 10:20:58;;;;;;;5.13;1.38;;;25.80;96.70;;;;;;5068310;28;20063;-84
2023/09/21 10:23:27;;;;;;;6.88;1.80;;;25.90;96.70;;;;;;5083610;28;20056;-81
2023/09/21 10:25:56;;;;;;;4.38;1.70;;;26.10;96.70;;;;;;5088031;28;20040;-81
2023/09/21 10:28:37;;;;;;;5.15;1.52;;;26.20;96.70;;;;;;5071791;28;20090;-84
2023/09/21 10:31:22;;;;;;;5.20;1.60;;;26.30;96.70;;;;;;5087870;28;20048;-82
2023/09/21 10:34:16;;;;;;;5.60;1.50;;;26.50;96.70;;;;;;5087159;28;20067;-82
2023/09/21 10:36:50;;;;;;;4.97;1.48;;;26.50;96.70;;;;;;5087160;28;20040;-82
2023/09/21 10:39:29;;;;;;;5.15;1.30;;;26.30;96.70;;;;;;5081133;28;20104;-84
2023/09/21 10:42:36;;;;;;;8.07;1.95;;;26.20;96.70;;;;;;5067457;28;20052;-84
2023/09/21 10:45:10;;;;;;;4.47;1.80;;;26.40;96.70;;;;;;5072275;28;20150;-84
2023/09/21 10:47:49;;;;;;;6.35;1.83;;;26.70;96.70;;;;;;5091034;28;20497;-83
2023/09/21 10:50:19;;;;;;;7.20;1.73;;;26.70;96.70;;;;;;5085949;28;20066;-83
2023/09/21 10:52:48;;;;;;;5.72;1.77;;;26.70;96.70;;;;;;5076474;28;20453;-86
2023/09/21 10:55:17;;;;;;;4.53;1.77;;;26.80;96.70;;;;;;5080455;28;20105;-83
2023/09/21 10:57:47;;;;;;;4.70;1.30;;;27.00;96.70;;;;;;5091832;28;20481;-82
2023/09/21 11:00:17;;;;;;;5.50;1.83;;;27.20;96.70;;;;;;5078748;28;20043;-81
2023/09/21 11:02:49;;;;;;;4.03;1.63;;;27.30;96.70;;;;;;5086975;28;20055;-82
2023/09/21 11:05:19;;;;;;;7.32;1.73;;;27.20;96.70;;;;;;5069431;28;20083;-83
2023/09/21 11:07:50;;;;;;;3.97;1.70;;;27.40;96.70;;;;;;5104220;28;20043;-83
2023/09/21 11:10:19;;;;;;;8.05;2.25;;;27.60;96.70;;;;;;5100249;28;20124;-84
2023/09/21 11:12:49;;;;;;;5.80;2.10;;;27.80;96.70;;;;;;5074924;28;20600;-83
2023/09/21 11:15:17;;;;;;;6.60;1.58;;;27.70;96.70;;;;;;5089847;28;20719;-82
2023/09/21 11:17:46;;;;;;;5.45;1.23;;;27.60;96.70;;;;;;5074166;28;20146;-84
2023/09/21 11:20:18;;;;;;;4.97;1.73;;;27.70;96.70;;;;;;5089963;28;20062;-84
2023/09/21 11:22:48;;;;;;;7.22;2.15;;;27.80;96.70;;;;;;5108390;28;20051;-84
2023/09/21 11:25:20;;;;;;;6.50;1.77;;;27.80;96.70;;;;;;5090791;28;20051;-84
2023/09/21 11:27:50;;;;;;;5.93;1.40;;;27.80;96.70;;;;;;5090119;28;20063;-83
2023/09/21 11:30:19;;;;;;;5.90;1.38;;;27.80;96.70;;;;;;5076826;28;20051;-81
2023/09/21 11:32:49;;;;;;;5.68;1.80;;;27.80;96.70;;;;;;5088982;28;20035;-81
2023/09/21 11:35:20;;;;;;;5.25;1.77;;;27.90;96.70;;;;;;5088879;28;20038;-81
2023/09/21 11:37:50;;;;;;;4.45;1.30;;;28.00;96.70;;;;;;5068450;28;20056;-80
2023/09/21 11:40:21;;;;;;;4.82;1.55;;;28.10;96.70;;;;;;5085054;28;20039;-80
2023/09/21 11:42:57;;;;;;;5.38;1.52;;;28.30;96.70;;;;;;5090445;28;20047;-80
2023/09/21 11:45:27;;;;;;;3.92;1.52;;;28.60;96.70;;;;;;5079839;28;20051;-79
2023/09/21 11:47:57;;;;;;;4.75;1.20;;;28.60;96.70;;;;;;5104674;28;20044;-78
2023/09/21 11:50:27;;;;;;;3.70;1.10;;;28.60;96.70;;;;;;5070233;28;20394;-79
2023/09/21 11:52:56;;;;;;;5.90;1.33;;;28.50;96.70;;;;;;5070018;28;20906;-80
2023/09/21 11:55:58;;;;;;;4.93;1.63;;;28.50;96.70;;;;;;5069862;28;20722;-80
2023/09/21 11:58:35;;;;;;;4.95;1.30;;;28.50;96.70;;;;;;5084553;28;20090;-81
2023/09/21 12:03:33;;;;;;;4.03;1.48;;;28.80;96.70;;;;;;5106754;28;20046;-81
2023/09/21 12:06:03;;;;;;;4.88;1.30;;;28.50;96.70;;;;;;5071557;28;20413;-80
2023/09/21 12:08:37;;;;;;;3.38;1.40;;;28.00;96.70;;;;;;5087523;28;20040;-82
2023/09/21 12:11:11;;;;;;;6.75;2.05;;;28.20;96.70;;;;;;5099266;28;20401;-80
2023/09/21 12:13:42;;;;;;;7.50;1.50;;;28.50;96.70;;;;;;5070533;28;20067;-81
2023/09/21 12:16:10;;;;;;;4.88;1.33;;;28.70;96.70;;;;;;5105720;28;20413;-80
2023/09/21 12:18:38;;;;;;;6.88;1.98;;;28.80;96.70;;;;;;5086549;28;20044;-81
2023/09/21 12:21:07;;;;;;;6.05;1.20;;;28.80;96.70;;;;;;5086242;28;20044;-78
2023/09/21 12:23:35;;;;;;;5.30;1.58;;;29.00;96.70;;;;;;5086200;28;20092;-81
2023/09/21 12:26:03;;;;;;;7.65;1.60;;;29.00;96.70;;;;;;5087732;28;20032;-80
2023/09/21 12:28:34;;;;;;;6.32;1.13;;;29.20;96.70;;;;;;5070493;28;20054;-80
2023/09/21 12:31:05;;;;;;;5.97;1.60;;;29.10;96.70;;;;;;5096522;28;20047;-81
2023/09/21 12:33:35;;;;;;;4.75;1.40;;;29.30;96.70;;;;;;5087584;28;20473;-81
2023/09/21 12:36:14;;;;;;;4.70;1.60;;;29.20;96.70;;;;;;5071564;28;20417;-81
2023/09/21 12:39:01;;;;;;;4.63;1.42;;;28.70;96.70;;;;;;5082588;28;20058;-80
2023/09/21 12:41:30;;;;;;;6.85;1.40;;;28.90;96.70;;;;;;5085532;28;20555;-81
2023/09/21 12:43:59;;;;;;;6.45;1.20;;;29.20;96.70;;;;;;5090265;28;20079;-80
2023/09/21 12:46:29;;;;;;;5.22;1.52;;;29.10;96.70;;;;;;5084512;28;20051;-81
2023/09/21 12:48:57;;;;;;;6.25;1.50;;;29.10;96.70;;;;;;5094523;28;20385;-82
2023/09/21 12:51:27;;;;;;;6.13;1.55;;;29.30;96.70;;;;;;5085440;28;20673;-82
2023/09/21 12:53:56;;;;;;;5.63;1.42;;;29.30;96.70;;;;;;5084715;28;20047;-81
2023/09/21 12:56:24;;;;;;;6.40;1.50;;;29.10;96.70;;;;;;5085992;28;20408;-82
2023/09/21 12:58:54;;;;;;;6.68;1.67;;;29.20;96.70;;;;;;5068886;28;20075;-82
2023/09/21 13:01:23;;;;;;;6.57;1.42;;;29.30;96.70;;;;;;5088503;28;20077;-82
2023/09/21 13:03:54;;;;;;;5.55;1.67;;;29.60;96.70;;;;;;5091402;28;20486;-82